This is the latest recevied weather packets stored in our database for station/object W5HKR. If no packets are shown the sender has not sent any weather packets the latest 10 day(s).
| Time | Temp. | Humidity | Pressure | Rain* | Wind** | Luminosity | Snow |
|---|---|---|---|---|---|---|---|
| 1777767498 | 18.33° C | 91% | 990.6 hPa | 0 mm | - | - | - |
| 1777766897 | 18.33° C | 91% | 990.6 hPa | 0 mm | - | - | - |
| 1777766297 | 18.33° C | 91% | 990.6 hPa | 0 mm | - | - | - |
| 1777765910 | 22.78° C | 40% | 991.2 hPa | 0 mm | - | - | - |
| 1777765397 | 23.33° C | 40% | 991.2 hPa | 0 mm | - | - | - |
| 1777764828 | 18.33° C | 91% | 990.6 hPa | 0 mm | - | - | - |
| 1777764497 | 18.33° C | 91% | 990.6 hPa | 0 mm | - | - | - |
| 1777764198 | 18.33° C | 91% | 990.6 hPa | 0 mm | - | - | - |
| 1777762397 | 18.33° C | 91% | 990.6 hPa | 0 mm | - | - | - |
| 1777761197 | 24.44° C | 37% | 991 hPa | 0 mm | - | - | - |
| 1777760597 | 25° C | 39% | 990.9 hPa | 0 mm | - | - | - |
| 1777760507 | 18.33° C | 91% | 990.6 hPa | 0 mm | - | - | - |
| 1777760298 | 18.33° C | 91% | 990.6 hPa | 0 mm | - | - | - |
| 1777759700 | 18.33° C | 91% | 990.6 hPa | 0 mm | - | - | - |
| 1777759430 | 18.33° C | 91% | 990.6 hPa | 0 mm | - | - | - |
| 1777759398 | 18.33° C | 91% | 990.6 hPa | 0 mm | - | - | - |
| 1777758798 | 18.33° C | 91% | 990.6 hPa | 0 mm | - | - | - |
| 1777758348 | 25° C | 41% | 991.3 hPa | 0 mm | - | - | - |
| 1777757898 | 24.44° C | 38% | 991.5 hPa | 0 mm | - | - | - |
| 1777757268 | 25° C | 38% | 991.7 hPa | 0 mm | - | - | - |
| 1777756997 | 24.44° C | 38% | 991.2 hPa | 0 mm | - | - | - |
| 1777755498 | 24.44° C | 39% | 991.9 hPa | 0 mm | - | - | - |
| 1777754897 | 24.44° C | 38% | 991.9 hPa | 0 mm | - | - | - |
| 1777754297 | 23.89° C | 40% | 991.9 hPa | 0 mm | - | - | - |
| 1777753697 | 24.44° C | 42% | 991.9 hPa | 0 mm | - | - | - |
* Rain latest hour (hover to see other rain measurements)
** Current wind speed in m/s (hover to see current wind gust speed)